createdAt,value
2018-11-25T00:01:57.647Z,20.63
2018-11-25T00:04:33.365Z,20.50
2018-11-25T00:07:09.388Z,20.40
2018-11-25T00:09:44.850Z,19.67
2018-11-25T00:12:19.900Z,19.43
2018-11-25T00:14:55.645Z,18.83
2018-11-25T00:17:31.627Z,19.03
2018-11-25T00:20:10.106Z,19.53
2018-11-25T00:22:44.995Z,19.23
2018-11-25T00:25:21.069Z,18.40
2018-11-25T00:27:56.052Z,19.33
2018-11-25T00:30:32.106Z,18.37
2018-11-25T00:33:07.716Z,19.10
2018-11-25T00:35:42.787Z,17.93
2018-11-25T00:38:18.433Z,19.00
2018-11-25T00:40:54.435Z,17.80
2018-11-25T00:43:29.517Z,17.27
2018-11-25T00:46:05.659Z,17.30
2018-11-25T00:48:41.149Z,17.83
2018-11-25T00:51:16.699Z,18.67
2018-11-25T00:53:52.027Z,17.63
2018-11-25T00:56:27.241Z,18.20
2018-11-25T00:59:02.926Z,18.43
2018-11-25T01:01:39.189Z,17.90
2018-11-25T01:04:14.382Z,15.47
2018-11-25T01:06:50.310Z,15.87
2018-11-25T01:09:26.000Z,17.07
2018-11-25T01:12:06.062Z,17.77
2018-11-25T01:14:41.476Z,17.13
2018-11-25T01:17:17.460Z,18.53
2018-11-25T01:19:53.166Z,18.50
2018-11-25T01:22:29.183Z,17.93
2018-11-25T01:25:05.446Z,18.50
2018-11-25T01:27:40.904Z,16.73
2018-11-25T01:30:16.772Z,16.53
2018-11-25T01:32:52.030Z,17.57
2018-11-25T01:35:27.872Z,18.53
2018-11-25T01:38:02.836Z,17.27
2018-11-25T01:40:37.975Z,17.57
2018-11-25T01:43:14.056Z,17.40
2018-11-25T01:45:49.587Z,17.73
2018-11-25T01:48:25.584Z,16.23
2018-11-25T01:51:01.381Z,17.07
2018-11-25T01:53:37.420Z,15.93
2018-11-25T01:56:13.120Z,16.03
2018-11-25T01:58:49.398Z,17.00
2018-11-25T02:01:24.814Z,16.47
2018-11-25T02:04:00.863Z,17.17
2018-11-25T02:06:36.684Z,17.03
2018-11-25T02:09:12.506Z,17.77
2018-11-25T02:11:48.205Z,16.37
2018-11-25T02:14:24.160Z,18.30
2018-11-25T02:16:59.981Z,17.30
2018-11-25T02:19:36.069Z,17.60
2018-11-25T02:22:11.792Z,17.00
2018-11-25T02:24:47.604Z,19.47
2018-11-25T02:27:23.429Z,18.50
2018-11-25T02:29:59.539Z,18.37
2018-11-25T02:32:35.318Z,18.83
2018-11-25T02:35:12.169Z,18.77
2018-11-25T02:37:47.334Z,17.97
2018-11-25T02:40:22.403Z,17.57
2018-11-25T02:42:58.153Z,16.90
2018-11-25T02:45:33.185Z,18.07
2018-11-25T02:48:08.938Z,17.50
2018-11-25T02:50:44.053Z,18.80
2018-11-25T02:53:19.919Z,16.47
2018-11-25T02:55:55.429Z,16.33
2018-11-25T02:58:30.817Z,17.80
2018-11-25T03:01:08.042Z,16.10
2018-11-25T03:03:43.762Z,17.30
2018-11-25T03:06:18.890Z,15.43
2018-11-25T03:08:54.643Z,18.33
2018-11-25T03:11:29.694Z,16.53
2018-11-25T03:14:05.921Z,16.77
2018-11-25T03:16:41.536Z,16.20
2018-11-25T03:19:17.154Z,16.07
2018-11-25T03:21:52.249Z,15.83
2018-11-25T03:24:28.056Z,16.73
2018-11-25T03:27:04.070Z,15.63
2018-11-25T03:29:39.799Z,16.30
2018-11-25T03:32:15.805Z,17.40
2018-11-25T03:34:51.611Z,17.73
2018-11-25T03:37:27.664Z,17.43
2018-11-25T03:40:03.429Z,16.83
2018-11-25T03:42:38.570Z,17.00
2018-11-25T03:45:15.399Z,17.60
2018-11-25T03:47:50.579Z,17.50
2018-11-25T03:50:26.304Z,16.37
2018-11-25T03:53:01.351Z,16.63
2018-11-25T03:55:37.115Z,17.00
2018-11-25T03:58:12.920Z,17.60
2018-11-25T04:00:48.467Z,16.90
2018-11-25T04:03:24.455Z,16.97
2018-11-25T04:05:59.385Z,17.77
2018-11-25T04:08:34.357Z,17.70
2018-11-25T04:11:10.247Z,17.63
2018-11-25T04:13:46.295Z,17.87
2018-11-25T04:16:21.978Z,17.37
2018-11-25T04:18:57.167Z,17.47
2018-11-25T04:21:33.049Z,19.50
2018-11-25T04:24:08.204Z,17.30
2018-11-25T04:26:43.515Z,18.50
2018-11-25T04:29:18.524Z,18.40
2018-11-25T04:31:54.290Z,17.73
2018-11-25T04:34:29.505Z,17.93
2018-11-25T04:37:05.283Z,20.83
2018-11-25T04:39:41.246Z,21.13
2018-11-25T04:42:16.834Z,19.83
2018-11-25T04:44:51.841Z,20.80
2018-11-25T04:47:26.875Z,20.47
2018-11-25T04:50:02.963Z,21.73
2018-11-25T04:52:38.618Z,22.40
2018-11-25T04:55:14.526Z,21.33
2018-11-25T04:57:52.990Z,20.50
2018-11-25T05:00:28.081Z,21.20
2018-11-25T05:03:04.034Z,20.73
2018-11-25T05:05:39.846Z,22.33
2018-11-25T05:08:15.861Z,19.37
2018-11-25T05:10:51.690Z,16.60
2018-11-25T05:13:27.699Z,17.73
2018-11-25T05:16:03.435Z,17.37
2018-11-25T05:18:39.387Z,18.43
2018-11-25T05:21:15.038Z,17.83
2018-11-25T05:23:50.049Z,16.37
2018-11-25T05:26:25.015Z,16.87
2018-11-25T05:29:00.171Z,17.47
2018-11-25T05:31:35.999Z,18.43
2018-11-25T05:34:11.955Z,18.37
2018-11-25T05:36:47.789Z,18.90
2018-11-25T05:39:22.844Z,19.03
2018-11-25T05:41:58.626Z,18.60
2018-11-25T05:44:33.778Z,19.97
2018-11-25T05:47:09.502Z,20.30
2018-11-25T05:49:44.619Z,20.57
2018-11-25T05:52:20.338Z,17.90
2018-11-25T05:54:56.335Z,17.20
2018-11-25T05:57:32.053Z,17.00
2018-11-25T06:00:12.510Z,17.60
2018-11-25T06:02:48.001Z,16.53
2018-11-25T06:05:24.920Z,14.73
2018-11-25T06:08:00.621Z,16.00
2018-11-25T06:10:36.383Z,13.77
2018-11-25T06:13:11.394Z,15.53
2018-11-25T06:15:47.189Z,16.47
2018-11-25T06:18:24.062Z,16.50
2018-11-25T06:20:58.954Z,17.00
2018-11-25T06:23:34.959Z,18.33
2018-11-25T06:26:10.624Z,18.40
2018-11-25T06:28:46.386Z,16.30
2018-11-25T06:31:22.124Z,20.23
2018-11-25T06:33:57.405Z,21.80
2018-11-25T06:36:33.142Z,22.20
2018-11-25T06:39:09.365Z,19.73
2018-11-25T06:41:46.047Z,19.50
2018-11-25T06:44:21.897Z,21.53
2018-11-25T06:46:58.784Z,22.87
2018-11-25T06:49:34.607Z,21.17
2018-11-25T06:52:11.548Z,24.03
2018-11-25T06:54:47.318Z,23.73
2018-11-25T06:57:24.290Z,22.10
2018-11-25T07:00:00.092Z,21.37
2018-11-25T07:02:39.707Z,21.70
2018-11-25T07:05:15.563Z,23.43
2018-11-25T07:07:51.574Z,21.33
2018-11-25T07:10:27.467Z,20.33
2018-11-25T07:13:07.069Z,21.90
2018-11-25T07:15:41.958Z,22.63
2018-11-25T07:18:27.412Z,22.20
2018-11-25T07:21:02.891Z,24.30
2018-11-25T07:23:52.789Z,24.43
2018-11-25T07:26:27.803Z,25.17
2018-11-25T07:29:05.196Z,25.60
2018-11-25T07:31:40.698Z,25.47
2018-11-25T07:34:16.606Z,24.47
2018-11-25T07:36:52.363Z,24.83
2018-11-25T07:39:27.375Z,26.93
2018-11-25T07:42:03.195Z,25.07
2018-11-25T07:44:42.120Z,26.77
2018-11-25T07:47:17.115Z,24.83
2018-11-25T07:49:52.241Z,26.80
2018-11-25T07:52:27.251Z,27.77
2018-11-25T07:55:02.957Z,26.53
2018-11-25T07:57:38.040Z,27.17
2018-11-25T08:00:17.473Z,27.93
2018-11-25T08:02:52.655Z,27.17
2018-11-25T08:05:28.614Z,26.93
2018-11-25T08:08:04.445Z,26.67
2018-11-25T08:10:39.435Z,25.03
2018-11-25T08:13:14.468Z,25.87
2018-11-25T08:15:49.697Z,26.67
2018-11-25T08:18:24.702Z,26.57
2018-11-25T08:20:59.782Z,24.17
2018-11-25T08:23:34.717Z,23.63
2018-11-25T08:26:11.368Z,25.27
2018-11-25T08:28:46.625Z,22.73
2018-11-25T08:31:22.180Z,22.27
2018-11-25T08:33:57.165Z,25.70
2018-11-25T08:36:33.150Z,25.70
2018-11-25T08:39:08.755Z,25.43
2018-11-25T08:41:44.126Z,24.53
2018-11-25T08:44:19.693Z,25.83
2018-11-25T08:46:55.642Z,24.40
2018-11-25T08:49:31.448Z,27.03
2018-11-25T08:52:06.746Z,26.13
2018-11-25T08:54:41.980Z,26.53
2018-11-25T08:57:17.774Z,24.63
2018-11-25T08:59:52.739Z,24.53
2018-11-25T09:02:28.533Z,24.93
2018-11-25T09:05:03.556Z,26.67
2018-11-25T09:07:38.675Z,26.03
2018-11-25T09:10:15.998Z,25.63
2018-11-25T09:12:55.713Z,28.33
2018-11-25T09:15:30.708Z,26.90
2018-11-25T09:18:06.114Z,27.63
2018-11-25T09:20:41.278Z,28.93
2018-11-25T09:23:16.360Z,29.73
2018-11-25T09:25:51.568Z,27.73
2018-11-25T09:28:26.613Z,26.43
2018-11-25T09:31:02.368Z,29.53
2018-11-25T09:33:37.402Z,27.83
2018-11-25T09:36:13.273Z,27.33
2018-11-25T09:38:48.787Z,26.73
2018-11-25T09:41:24.244Z,25.00
2018-11-25T09:43:59.673Z,23.60
2018-11-25T09:46:42.409Z,25.17
2018-11-25T09:49:11.033Z,25.97
2018-11-25T09:51:46.732Z,27.50
2018-11-25T09:54:21.733Z,24.40
2018-11-25T09:56:57.515Z,25.23
2018-11-25T09:59:32.654Z,23.60
2018-11-25T10:02:07.687Z,24.80
2018-11-25T10:04:42.946Z,23.43
2018-11-25T10:07:19.263Z,23.63
2018-11-25T10:09:54.453Z,23.07
2018-11-25T10:12:29.868Z,23.43
2018-11-25T10:15:06.310Z,22.43
2018-11-25T10:17:41.584Z,23.00
2018-11-25T10:20:18.032Z,22.53
2018-11-25T10:22:53.963Z,22.67
2018-11-25T10:25:29.341Z,20.63
2018-11-25T10:28:04.613Z,23.00
2018-11-25T10:30:39.705Z,23.83
2018-11-25T10:33:14.701Z,21.70
2018-11-25T10:35:50.090Z,22.13
2018-11-25T10:38:25.303Z,21.67
2018-11-25T10:41:01.078Z,21.33
2018-11-25T10:43:36.112Z,22.70
2018-11-25T10:46:12.037Z,20.77
2018-11-25T10:48:47.127Z,20.77
2018-11-25T10:51:23.071Z,23.03
2018-11-25T10:53:58.150Z,22.20
2018-11-25T10:56:33.207Z,21.83
2018-11-25T10:59:08.342Z,22.47
2018-11-25T11:01:54.581Z,21.90
2018-11-25T11:04:35.094Z,22.37
2018-11-25T11:07:16.510Z,22.37
2018-11-25T11:09:52.177Z,21.47
2018-11-25T11:12:27.699Z,21.83
2018-11-25T11:15:02.970Z,22.40
2018-11-25T11:17:38.803Z,21.60
2018-11-25T11:20:14.678Z,20.70
2018-11-25T11:22:49.666Z,21.67
2018-11-25T11:25:24.934Z,21.47
2018-11-25T11:28:00.050Z,21.67
2018-11-25T11:30:35.647Z,24.10
2018-11-25T11:33:11.093Z,24.10
2018-11-25T11:35:46.927Z,24.27
2018-11-25T11:38:22.543Z,25.47
2018-11-25T11:40:58.350Z,25.33
2018-11-25T11:43:33.328Z,24.23
2018-11-25T11:46:08.309Z,22.40
2018-11-25T11:48:43.474Z,21.80
2018-11-25T11:51:25.470Z,22.77
2018-11-25T11:53:55.477Z,20.77
2018-11-25T11:56:31.134Z,21.10
2018-11-25T11:59:06.382Z,21.57
2018-11-25T12:01:41.727Z,21.77
2018-11-25T12:04:17.091Z,21.53
2018-11-25T12:06:52.684Z,21.90
2018-11-25T12:09:28.622Z,20.67
2018-11-25T12:12:04.006Z,20.47
2018-11-25T12:14:39.102Z,19.63
2018-11-25T12:17:14.589Z,22.03
2018-11-25T12:19:50.534Z,20.60
2018-11-25T12:22:25.868Z,21.53
2018-11-25T12:25:01.376Z,18.60
2018-11-25T12:27:36.814Z,19.47
2018-11-25T12:30:14.953Z,19.47
2018-11-25T12:32:51.477Z,19.17
2018-11-25T12:35:26.998Z,20.17
2018-11-25T12:38:02.624Z,19.70
2018-11-25T12:40:37.750Z,21.27
2018-11-25T12:43:13.306Z,19.43
2018-11-25T12:45:48.546Z,20.13
2018-11-25T12:48:23.582Z,21.47
2018-11-25T12:50:58.587Z,20.50
2018-11-25T12:53:33.607Z,20.87
2018-11-25T12:56:09.628Z,20.47
2018-11-25T12:58:45.615Z,19.90
2018-11-25T13:01:21.570Z,20.00
2018-11-25T13:03:57.358Z,20.60
2018-11-25T13:06:32.926Z,21.93
2018-11-25T13:09:08.565Z,23.43
2018-11-25T13:11:44.533Z,24.80
2018-11-25T13:14:19.713Z,24.27
2018-11-25T13:16:55.489Z,26.93
2018-11-25T13:19:31.072Z,27.83
2018-11-25T13:22:06.375Z,25.17
2018-11-25T13:24:42.056Z,25.40
2018-11-25T13:27:17.090Z,24.70
2018-11-25T13:29:52.665Z,26.23
2018-11-25T13:32:28.466Z,27.80
2018-11-25T13:35:03.887Z,23.03
2018-11-25T13:37:39.374Z,25.00
2018-11-25T13:40:15.592Z,23.07
2018-11-25T13:42:51.455Z,24.80
2018-11-25T13:45:26.722Z,24.10
2018-11-25T13:48:02.122Z,25.13
2018-11-25T13:50:38.054Z,25.00
2018-11-25T13:53:44.399Z,26.00
2018-11-25T13:56:19.944Z,23.47
2018-11-25T13:58:55.015Z,24.07
2018-11-25T14:01:30.820Z,26.87
2018-11-25T14:04:07.030Z,25.17
2018-11-25T14:06:42.627Z,26.83
2018-11-25T14:09:18.642Z,26.47
2018-11-25T14:11:54.478Z,28.13
2018-11-25T14:14:29.692Z,25.77
2018-11-25T14:17:05.433Z,25.63
2018-11-25T14:19:40.675Z,25.13
2018-11-25T14:22:15.694Z,27.40
2018-11-25T14:24:51.291Z,28.27
2018-11-25T14:27:26.795Z,28.90
2018-11-25T14:30:01.858Z,27.87
2018-11-25T14:32:37.660Z,28.03
2018-11-25T14:35:14.672Z,26.07
2018-11-25T14:37:50.452Z,28.30
2018-11-25T14:40:25.979Z,27.17
2018-11-25T14:43:01.284Z,27.63
2018-11-25T14:45:37.997Z,23.27
2018-11-25T14:48:14.119Z,24.83
2018-11-25T14:50:50.030Z,22.33
2018-11-25T14:53:25.339Z,24.27
2018-11-25T14:56:00.591Z,25.13
2018-11-25T14:58:36.553Z,24.30
2018-11-25T15:01:11.679Z,24.63
2018-11-25T15:03:48.151Z,24.30
2018-11-25T15:06:29.212Z,24.63
2018-11-25T15:08:58.921Z,23.47
2018-11-25T15:11:34.430Z,25.80
2018-11-25T15:14:09.592Z,24.83
2018-11-25T15:16:44.609Z,28.83
2018-11-25T15:19:19.757Z,28.23
2018-11-25T15:21:55.513Z,24.67
2018-11-25T15:24:31.484Z,23.40
2018-11-25T15:27:07.423Z,22.87
2018-11-25T15:29:42.574Z,25.03
2018-11-25T15:32:17.820Z,26.53
2018-11-25T15:34:53.633Z,26.60
2018-11-25T15:37:28.893Z,24.37
2018-11-25T15:40:05.388Z,25.40
2018-11-25T15:42:40.860Z,24.30
2018-11-25T15:45:16.142Z,25.13
2018-11-25T15:47:59.428Z,22.00
2018-11-25T15:50:34.751Z,22.93
2018-11-25T15:53:10.934Z,21.93
2018-11-25T15:55:47.657Z,25.13
2018-11-25T15:58:22.675Z,26.60
2018-11-25T16:00:57.675Z,24.20
2018-11-25T16:03:33.697Z,24.70
2018-11-25T16:06:15.710Z,23.27
2018-11-25T16:08:50.860Z,24.23
2018-11-25T16:11:26.736Z,21.90
2018-11-25T16:14:02.678Z,20.77
2018-11-25T16:16:38.207Z,21.07
2018-11-25T16:19:13.246Z,21.67
2018-11-25T16:21:48.299Z,21.57
2018-11-25T16:24:23.463Z,20.23
2018-11-25T16:26:59.425Z,22.40
2018-11-25T16:29:35.237Z,22.07
2018-11-25T16:32:10.287Z,22.97
2018-11-25T16:34:46.118Z,22.40
2018-11-25T16:37:22.146Z,21.30
2018-11-25T16:39:58.034Z,22.07
2018-11-25T16:42:33.094Z,18.57
2018-11-25T16:45:16.946Z,18.70
2018-11-25T16:47:52.594Z,20.80
2018-11-25T16:50:28.014Z,21.37
2018-11-25T16:53:03.636Z,20.57
2018-11-25T16:55:39.425Z,20.93
2018-11-25T16:58:14.854Z,20.23
2018-11-25T17:00:50.851Z,20.60
2018-11-25T17:03:26.810Z,22.23
2018-11-25T17:06:01.855Z,23.87
2018-11-25T17:08:40.260Z,25.57
2018-11-25T17:11:16.180Z,24.87
2018-11-25T17:13:53.626Z,26.20
2018-11-25T17:16:28.532Z,25.20
2018-11-25T17:19:04.025Z,22.40
2018-11-25T17:21:39.237Z,20.27
2018-11-25T17:24:14.740Z,22.47
2018-11-25T17:26:50.677Z,21.33
2018-11-25T17:29:26.126Z,20.93
2018-11-25T17:32:01.074Z,21.93
2018-11-25T17:34:37.010Z,22.50
2018-11-25T17:37:12.074Z,23.03
2018-11-25T17:39:47.309Z,22.70
2018-11-25T17:42:23.233Z,22.47
2018-11-25T17:44:58.375Z,23.70
2018-11-25T17:47:34.146Z,23.10
2018-11-25T17:50:18.776Z,21.80
2018-11-25T17:52:55.034Z,24.03
2018-11-25T17:55:31.326Z,23.23
2018-11-25T17:58:06.778Z,20.63
2018-11-25T18:00:46.066Z,23.17
2018-11-25T18:03:25.323Z,23.43
2018-11-25T18:06:31.999Z,23.53
2018-11-25T18:09:10.292Z,20.00
2018-11-25T18:11:46.009Z,21.67
2018-11-25T18:14:21.542Z,22.57
2018-11-25T18:16:56.848Z,21.43
2018-11-25T18:19:32.168Z,22.57
2018-11-25T18:22:12.203Z,24.87
2018-11-25T18:24:47.639Z,26.10
2018-11-25T18:27:23.641Z,26.53
2018-11-25T18:29:59.453Z,24.83
2018-11-25T18:32:35.433Z,24.37
2018-11-25T18:35:10.500Z,23.10
2018-11-25T18:37:46.459Z,22.97
2018-11-25T18:40:22.190Z,20.67
2018-11-25T18:42:57.886Z,21.73
2018-11-25T18:45:32.838Z,21.23
2018-11-25T18:48:10.119Z,22.67
2018-11-25T18:50:45.663Z,21.67
2018-11-25T18:53:20.748Z,20.40
2018-11-25T18:55:56.397Z,22.30
2018-11-25T18:58:31.735Z,20.87
2018-11-25T19:01:14.588Z,21.33
2018-11-25T19:03:49.620Z,21.70
2018-11-25T19:06:25.500Z,21.43
2018-11-25T19:09:01.371Z,20.37
2018-11-25T19:11:37.452Z,22.33
2018-11-25T19:14:12.454Z,22.37
2018-11-25T19:16:47.566Z,22.73
2018-11-25T19:19:23.148Z,24.20
2018-11-25T19:21:58.682Z,21.60
2018-11-25T19:24:34.194Z,22.10
2018-11-25T19:27:09.688Z,20.50
2018-11-25T19:29:45.038Z,22.50
2018-11-25T19:32:20.681Z,22.43
2018-11-25T19:34:55.808Z,22.37
2018-11-25T19:37:32.418Z,22.43
2018-11-25T19:40:13.572Z,21.83
2018-11-25T19:42:49.699Z,24.03
2018-11-25T19:45:25.979Z,20.50
2018-11-25T19:48:00.886Z,21.83
2018-11-25T19:50:37.682Z,18.77
2018-11-25T19:53:13.520Z,22.13
2018-11-25T19:55:48.695Z,21.73
2018-11-25T19:58:23.907Z,21.83
2018-11-25T20:00:59.712Z,22.93
2018-11-25T20:03:34.915Z,22.73
2018-11-25T20:06:10.785Z,26.33
2018-11-25T20:08:46.684Z,24.23
2018-11-25T20:11:22.605Z,25.23
2018-11-25T20:13:58.584Z,25.03
2018-11-25T20:16:39.595Z,23.83
2018-11-25T20:19:15.309Z,24.77
2018-11-25T20:21:56.211Z,24.10
2018-11-25T20:24:31.577Z,24.50
2018-11-25T20:27:12.139Z,22.83
2018-11-25T20:29:47.778Z,23.17
2018-11-25T20:32:28.832Z,24.17
2018-11-25T20:35:03.848Z,23.20
2018-11-25T20:37:44.751Z,22.80
2018-11-25T20:40:20.378Z,23.43
2018-11-25T20:42:55.826Z,23.40
2018-11-25T20:45:38.986Z,24.20
2018-11-25T20:48:12.079Z,26.30
2018-11-25T20:50:47.469Z,25.27
2018-11-25T20:54:27.862Z,24.80
2018-11-25T20:57:03.135Z,23.83
2018-11-25T20:59:38.165Z,24.60
2018-11-25T21:02:20.170Z,25.17
2018-11-25T21:04:49.495Z,24.03
2018-11-25T21:07:24.521Z,26.77
2018-11-25T21:09:59.701Z,25.83
2018-11-25T21:12:34.736Z,24.80
2018-11-25T21:15:10.702Z,24.90
2018-11-25T21:17:46.037Z,25.07
2018-11-25T21:20:23.581Z,26.03
2018-11-25T21:22:59.128Z,24.43
2018-11-25T21:25:35.461Z,24.83
2018-11-25T21:28:11.447Z,25.77
2018-11-25T21:30:47.114Z,26.90
2018-11-25T21:33:22.003Z,25.53
2018-11-25T21:35:56.961Z,25.27
2018-11-25T21:38:31.926Z,25.90
2018-11-25T21:41:07.224Z,25.77
2018-11-25T21:43:42.256Z,26.30
2018-11-25T21:46:18.035Z,27.10
2018-11-25T21:48:53.994Z,27.20
2018-11-25T21:51:29.412Z,25.20
2018-11-25T21:54:04.550Z,26.27
2018-11-25T21:56:40.424Z,25.73
2018-11-25T21:59:15.583Z,26.57
2018-11-25T22:01:50.550Z,27.07
2018-11-25T22:04:25.819Z,26.00
2018-11-25T22:07:01.165Z,26.43
2018-11-25T22:09:37.796Z,26.80
2018-11-25T22:12:13.567Z,26.43
2018-11-25T22:14:48.939Z,28.93
2018-11-25T22:17:23.891Z,29.27
2018-11-25T22:19:59.740Z,27.70
2018-11-25T22:22:34.633Z,27.30
2018-11-25T22:25:11.718Z,26.50
2018-11-25T22:27:46.709Z,27.97
2018-11-25T22:30:23.068Z,28.43
2018-11-25T22:32:58.794Z,29.63
2018-11-25T22:35:33.848Z,28.40
2018-11-25T22:38:09.398Z,29.07
2018-11-25T22:40:44.368Z,28.67
2018-11-25T22:43:19.372Z,28.73
2018-11-25T22:45:54.906Z,29.17
2018-11-25T22:48:29.878Z,30.10
2018-11-25T22:51:05.234Z,28.00
2018-11-25T22:53:41.381Z,27.90
2018-11-25T22:56:17.276Z,27.63
2018-11-25T22:58:52.292Z,29.63
2018-11-25T23:01:28.019Z,29.40
2018-11-25T23:04:15.381Z,29.23
2018-11-25T23:06:58.985Z,28.60
2018-11-25T23:09:34.465Z,28.77
2018-11-25T23:12:09.461Z,29.57
2018-11-25T23:14:44.382Z,28.33
2018-11-25T23:17:19.851Z,29.07
2018-11-25T23:19:55.754Z,28.77
2018-11-25T23:22:32.564Z,28.10
2018-11-25T23:25:07.450Z,30.17
2018-11-25T23:27:42.555Z,29.03
2018-11-25T23:30:18.119Z,27.97
2018-11-25T23:32:53.430Z,29.73
2018-11-25T23:35:29.274Z,28.30
2018-11-25T23:38:05.517Z,31.63
2018-11-25T23:40:41.387Z,32.33
2018-11-25T23:43:16.431Z,26.70
2018-11-25T23:45:52.154Z,31.53
2018-11-25T23:48:27.611Z,30.13
2018-11-25T23:51:03.455Z,29.37
2018-11-25T23:53:39.332Z,25.40
2018-11-25T23:56:14.908Z,31.00
2018-11-25T23:58:50.701Z,31.77
